CYNL

METAR CYNL 200600Z AUTO 10004KT 9SM SCT003 OVC012 M12/M14 A2899 RMK AO1 SLP871
METAR
LOCATION
CYNL
DATE - TIME
200600Z
WIND
100 TRUE @ 4 KNOTS
VISIBILITY
9SM
RUNWAY VISUAL RANGE
NOT REPORTED
WEATHER
CLOUDINESS
SCT003 OVC012
TEMP / DEWPOINT
-12 ºC / -14 ºC
ALTIMETER
28.99 in. Hg
RECENT WEATHER
NOT REPORTED
WIND SHEAR
NOT REPORTED
REMARKS
RMK AO1 SLP871
SEA LEVEL PRESSURE: hPa

CYNL

SPECI CYNL 200537Z AUTO 12005KT 9SM FEW003 OVC013 M12/M14 A2900 RMK AO1 SLP874
SPECI
LOCATION
CYNL
DATE - TIME
200537Z
WIND
120 TRUE @ 5 KNOTS
VISIBILITY
9SM
RUNWAY VISUAL RANGE
NOT REPORTED
WEATHER
CLOUDINESS
FEW003 OVC013
TEMP / DEWPOINT
-12 ºC / -14 ºC
ALTIMETER
29.00 in. Hg
RECENT WEATHER
NOT REPORTED
WIND SHEAR
NOT REPORTED
REMARKS
RMK AO1 SLP874
SEA LEVEL PRESSURE: hPa

CYNL

SPECI CYNL 200519Z AUTO 12005KT 9SM OVC014 M12/M14 A2899 RMK AO1 SLP873
SPECI
LOCATION
CYNL
DATE - TIME
200519Z
WIND
120 TRUE @ 5 KNOTS
VISIBILITY
9SM
RUNWAY VISUAL RANGE
NOT REPORTED
WEATHER
CLOUDINESS
OVC014
TEMP / DEWPOINT
-12 ºC / -14 ºC
ALTIMETER
28.99 in. Hg
RECENT WEATHER
NOT REPORTED
WIND SHEAR
NOT REPORTED
REMARKS
RMK AO1 SLP873
SEA LEVEL PRESSURE: hPa

Your time UTC time
 
 
Weather data provided by AXYS Technologies Inc., www.axystechnologies.com
 
Station History